createdAt,value
2023-05-01T00:00:21.397Z,100899.89
2023-05-01T00:03:50.043Z,100904.38
2023-05-01T00:06:54.698Z,100910.73
2023-05-01T00:09:59.269Z,100906.89
2023-05-01T00:13:03.882Z,100907.86
2023-05-01T00:16:12.664Z,100907.69
2023-05-01T00:19:18.773Z,100903.30
2023-05-01T00:22:22.799Z,100904.09
2023-05-01T00:25:27.093Z,100904.73
2023-05-01T00:28:31.460Z,100911.59
2023-05-01T00:31:36.497Z,100915.52
2023-05-01T00:34:40.692Z,100918.95
2023-05-01T00:37:44.923Z,100917.42
2023-05-01T00:40:48.937Z,100918.65
2023-05-01T00:43:52.968Z,100923.38
2023-05-01T00:47:00.245Z,100926.62
2023-05-01T00:50:05.228Z,100925.20
2023-05-01T00:53:09.312Z,100925.20
2023-05-01T00:56:15.136Z,100922.31
2023-05-01T00:59:19.492Z,100921.04
2023-05-01T01:02:23.909Z,100924.60
2023-05-01T01:05:32.834Z,100926.99
2023-05-01T01:09:08.043Z,100926.09
2023-05-01T01:12:35.635Z,100926.39
2023-05-01T01:16:23.133Z,100925.48
2023-05-01T01:19:39.671Z,100923.93
2023-05-01T01:22:49.762Z,100928.98
2023-05-01T01:26:11.898Z,100930.98
2023-05-01T01:29:48.478Z,100932.12
2023-05-01T01:33:10.106Z,100932.91
2023-05-01T01:36:23.343Z,100934.11
2023-05-01T01:39:30.081Z,100935.55
2023-05-01T01:42:49.599Z,100943.66
2023-05-01T01:46:02.345Z,100943.30
2023-05-01T01:49:09.418Z,100938.68
2023-05-01T01:52:17.220Z,100940.55
2023-05-01T01:55:27.705Z,100945.86
2023-05-01T01:58:32.202Z,100942.67
2023-05-01T02:01:39.667Z,100942.65
2023-05-01T02:04:45.760Z,100941.95
2023-05-01T02:07:51.554Z,100939.64
2023-05-01T02:11:01.829Z,100944.73
2023-05-01T02:14:08.883Z,100944.14
2023-05-01T02:17:16.495Z,100942.49
2023-05-01T02:20:22.729Z,100942.39
2023-05-01T02:23:28.694Z,100938.45
2023-05-01T02:26:40.205Z,100937.64
2023-05-01T02:29:44.459Z,100937.96
2023-05-01T02:32:48.754Z,100937.86
2023-05-01T02:35:53.078Z,100940.05
2023-05-01T02:38:57.102Z,100935.61
2023-05-01T02:42:05.601Z,100933.88
2023-05-01T02:45:15.960Z,100930.15
2023-05-01T02:48:28.130Z,100933.26
2023-05-01T02:51:32.766Z,100934.17
2023-05-01T02:54:36.717Z,100935.11
2023-05-01T02:57:41.767Z,100934.55
2023-05-01T03:00:47.248Z,100934.14
2023-05-01T03:03:51.856Z,100936.91
2023-05-01T03:06:57.064Z,100943.34
2023-05-01T03:10:04.984Z,100939.69
2023-05-01T03:13:10.975Z,100938.39
2023-05-01T03:16:15.012Z,100941.80
2023-05-01T03:19:19.033Z,100942.10
2023-05-01T03:22:23.000Z,100944.13
2023-05-01T03:25:27.597Z,100942.11
2023-05-01T03:28:31.646Z,100941.06
2023-05-01T03:31:35.771Z,100938.55
2023-05-01T03:34:40.094Z,100940.04
2023-05-01T03:37:44.518Z,100936.81
2023-05-01T03:40:50.466Z,100939.02
2023-05-01T03:44:13.207Z,100937.63
2023-05-01T03:47:19.695Z,100938.59
2023-05-01T03:50:23.712Z,100935.16
2023-05-01T03:53:28.036Z,100933.43
2023-05-01T03:56:35.794Z,100929.42
2023-05-01T03:59:40.418Z,100930.31
2023-05-01T04:02:44.569Z,100928.86
2023-05-01T04:05:52.998Z,100934.68
2023-05-01T04:08:57.028Z,100927.44
2023-05-01T04:12:02.773Z,100930.29
2023-05-01T04:15:08.576Z,100933.84
2023-05-01T04:18:13.020Z,100933.41
2023-05-01T04:21:18.962Z,100933.04
2023-05-01T04:24:25.717Z,100931.73
2023-05-01T04:27:31.772Z,100934.02
2023-05-01T04:30:36.756Z,100929.23
2023-05-01T04:33:40.713Z,100934.91
2023-05-01T04:36:44.912Z,100934.70
2023-05-01T04:39:49.384Z,100937.84
2023-05-01T04:42:54.507Z,100936.20
2023-05-01T04:45:59.119Z,100935.19
2023-05-01T04:49:03.172Z,100929.95
2023-05-01T04:52:07.081Z,100928.51
2023-05-01T04:55:22.651Z,100930.55
2023-05-01T04:58:56.253Z,100929.71
2023-05-01T05:02:02.442Z,100929.77
2023-05-01T05:05:07.084Z,100929.11
2023-05-01T05:08:11.039Z,100926.45
2023-05-01T05:11:17.033Z,100930.81
2023-05-01T05:14:34.871Z,100929.42
2023-05-01T05:17:38.884Z,100930.35
2023-05-01T05:20:43.009Z,100930.94
2023-05-01T05:23:47.215Z,100925.05
2023-05-01T05:26:51.464Z,100930.28
2023-05-01T05:29:55.649Z,100926.80
2023-05-01T05:33:00.223Z,100925.27
2023-05-01T05:36:04.460Z,100928.69
2023-05-01T05:39:13.453Z,100926.66
2023-05-01T05:42:17.469Z,100926.83
2023-05-01T05:45:21.695Z,100928.02
2023-05-01T05:48:26.467Z,100930.27
2023-05-01T05:51:30.703Z,100933.34
2023-05-01T05:54:34.864Z,100932.05
2023-05-01T05:57:38.796Z,100932.58
2023-05-01T06:00:43.413Z,100932.11
2023-05-01T06:03:47.430Z,100936.30
2023-05-01T06:06:52.189Z,100934.17
2023-05-01T06:10:01.740Z,100929.46
2023-05-01T06:13:10.523Z,100927.21
2023-05-01T06:16:19.723Z,100927.61
2023-05-01T06:19:23.886Z,100924.42
2023-05-01T06:22:30.545Z,100925.56
2023-05-01T06:25:42.859Z,100928.23
2023-05-01T06:28:47.046Z,100931.61
2023-05-01T06:31:51.044Z,100930.23
2023-05-01T06:34:55.253Z,100930.47
2023-05-01T06:38:00.326Z,100931.53
2023-05-01T06:41:05.490Z,100932.36
2023-05-01T06:44:09.390Z,100931.48
2023-05-01T06:47:15.406Z,100928.89
2023-05-01T06:50:19.707Z,100924.48
2023-05-01T06:53:23.721Z,100923.23
2023-05-01T06:56:27.858Z,100924.90
2023-05-01T06:59:31.801Z,100921.63
2023-05-01T07:02:38.293Z,100921.21
2023-05-01T07:05:42.550Z,100918.99
2023-05-01T07:08:46.567Z,100912.28
2023-05-01T07:11:50.584Z,100916.21
2023-05-01T07:14:54.608Z,100915.48
2023-05-01T07:17:58.632Z,100911.84
2023-05-01T07:21:02.776Z,100910.82
2023-05-01T07:24:06.961Z,100912.46
2023-05-01T07:27:10.973Z,100906.83
2023-05-01T07:30:15.202Z,100907.27
2023-05-01T07:33:19.296Z,100905.41
2023-05-01T07:36:24.410Z,100905.24
2023-05-01T07:39:28.567Z,100909.95
2023-05-01T07:42:32.587Z,100908.00
2023-05-01T07:45:37.701Z,100906.52
2023-05-01T07:48:41.797Z,100907.73
2023-05-01T07:51:46.182Z,100908.78
2023-05-01T07:54:51.212Z,100911.11
2023-05-01T07:57:55.225Z,100903.08
2023-05-01T08:00:59.334Z,100903.31
2023-05-01T08:04:03.454Z,100902.16
2023-05-01T08:07:07.677Z,100900.30
2023-05-01T08:10:11.694Z,100899.85
2023-05-01T08:13:15.912Z,100900.77
2023-05-01T08:16:22.028Z,100900.48
2023-05-01T08:19:28.142Z,100900.82
2023-05-01T08:22:32.149Z,100901.77
2023-05-01T08:25:36.065Z,100898.27
2023-05-01T08:28:40.078Z,100899.34
2023-05-01T08:31:45.235Z,100908.19
2023-05-01T08:34:49.292Z,100914.16
2023-05-01T08:37:53.242Z,100905.04
2023-05-01T08:40:59.024Z,100900.91
2023-05-01T08:44:04.902Z,100903.14
2023-05-01T08:47:19.033Z,100902.09
2023-05-01T08:50:24.772Z,100898.11
2023-05-01T08:53:32.138Z,100901.20
2023-05-01T08:56:36.610Z,100896.94
2023-05-01T08:59:41.203Z,100898.95
2023-05-01T09:02:46.899Z,100897.12
2023-05-01T09:05:52.332Z,100893.58
2023-05-01T09:08:56.371Z,100890.38
2023-05-01T09:12:09.104Z,100885.73
2023-05-01T09:15:13.610Z,100888.45
2023-05-01T09:18:18.664Z,100888.48
2023-05-01T09:21:22.765Z,100883.19
2023-05-01T09:24:26.880Z,100879.98
2023-05-01T09:27:38.160Z,100875.91
2023-05-01T09:30:42.177Z,100875.43
2023-05-01T09:34:12.294Z,100871.78
2023-05-01T09:37:29.872Z,100864.48
2023-05-01T09:40:34.059Z,100859.97
2023-05-01T09:43:39.021Z,100857.73
2023-05-01T09:46:44.165Z,100852.52
2023-05-01T09:49:49.292Z,100849.25
2023-05-01T09:52:53.310Z,100851.45
2023-05-01T09:56:01.815Z,100851.88
2023-05-01T09:59:20.421Z,100832.98
2023-05-01T10:02:30.661Z,100839.71
2023-05-01T10:05:44.723Z,100837.71
2023-05-01T10:08:50.138Z,100830.27
2023-05-01T10:11:59.235Z,100828.98
2023-05-01T10:15:17.423Z,100824.15
2023-05-01T10:18:30.666Z,100824.92
2023-05-01T10:21:35.285Z,100820.32
2023-05-01T10:24:43.315Z,100816.59
2023-05-01T10:27:49.250Z,100815.39
2023-05-01T10:30:54.240Z,100819.04
2023-05-01T10:33:59.364Z,100812.20
2023-05-01T10:37:13.008Z,100807.63
2023-05-01T10:40:39.185Z,100800.27
2023-05-01T10:43:43.902Z,100799.06
2023-05-01T10:46:48.056Z,100793.98
2023-05-01T10:50:09.592Z,100793.36
2023-05-01T10:53:14.640Z,100788.80
2023-05-01T10:56:23.908Z,100787.93
2023-05-01T10:59:48.468Z,100783.11
2023-05-01T11:02:52.543Z,100776.50
2023-05-01T11:06:00.115Z,100776.64
2023-05-01T11:09:36.757Z,100775.21
2023-05-01T11:12:46.998Z,100774.48
2023-05-01T11:15:51.368Z,100771.33
2023-05-01T11:18:55.468Z,100763.20
2023-05-01T11:22:00.620Z,100758.10
2023-05-01T11:25:18.746Z,100764.78
2023-05-01T11:28:22.881Z,100759.33
2023-05-01T11:31:27.821Z,100751.73
2023-05-01T11:34:37.969Z,100744.67
2023-05-01T11:37:45.767Z,100745.17
2023-05-01T11:40:55.706Z,100737.05
2023-05-01T11:43:59.738Z,100736.55
2023-05-01T11:47:03.809Z,100734.49
2023-05-01T11:50:09.617Z,100731.40
2023-05-01T11:53:18.550Z,100726.86
2023-05-01T11:56:26.966Z,100723.48
2023-05-01T11:59:31.626Z,100718.83
2023-05-01T12:02:35.681Z,100718.29
2023-05-01T12:05:42.739Z,100706.55
2023-05-01T12:08:51.725Z,100713.11
2023-05-01T12:11:58.404Z,100715.63
2023-05-01T12:15:03.974Z,100712.67
2023-05-01T12:18:08.857Z,100710.96
2023-05-01T12:21:18.046Z,100705.16
2023-05-01T12:24:22.076Z,100696.35
2023-05-01T12:27:26.282Z,100697.02
2023-05-01T12:30:30.832Z,100700.97
2023-05-01T12:33:34.740Z,100693.54
2023-05-01T12:36:38.941Z,100689.16
2023-05-01T12:39:44.971Z,100681.94
2023-05-01T12:42:57.761Z,100682.11
2023-05-01T12:46:04.021Z,100673.80
2023-05-01T12:49:08.108Z,100672.52
2023-05-01T12:52:13.080Z,100671.70
2023-05-01T12:55:17.675Z,100666.45
2023-05-01T12:58:22.298Z,100658.71
2023-05-01T13:01:28.503Z,100653.07
2023-05-01T13:04:33.333Z,100643.45
2023-05-01T13:07:40.289Z,100640.29
2023-05-01T13:10:44.720Z,100636.52
2023-05-01T13:13:49.852Z,100638.19
2023-05-01T13:16:55.337Z,100631.77
2023-05-01T13:20:02.438Z,100633.63
2023-05-01T13:23:12.968Z,100628.83
2023-05-01T13:26:17.168Z,100623.38
2023-05-01T13:29:23.766Z,100617.60
2023-05-01T13:32:28.284Z,100612.21
2023-05-01T13:35:32.426Z,100609.14
2023-05-01T13:38:44.195Z,100607.06
2023-05-01T13:41:48.794Z,100604.98
2023-05-01T13:44:57.357Z,100599.56
2023-05-01T13:48:03.045Z,100600.56
2023-05-01T13:51:11.582Z,100600.98
2023-05-01T13:54:16.897Z,100600.60
2023-05-01T13:57:20.956Z,100599.98
2023-05-01T14:00:26.858Z,100598.30
2023-05-01T14:03:40.475Z,100589.61
2023-05-01T14:06:47.566Z,100584.54
2023-05-01T14:09:56.814Z,100580.58
2023-05-01T14:13:01.245Z,100576.77
2023-05-01T14:16:11.696Z,100570.46
2023-05-01T14:19:18.279Z,100566.75
2023-05-01T14:22:22.639Z,100567.36
2023-05-01T14:25:28.758Z,100562.40
2023-05-01T14:28:32.988Z,100554.20
2023-05-01T14:31:36.981Z,100554.00
2023-05-01T14:34:42.447Z,100548.02
2023-05-01T14:37:46.890Z,100545.19
2023-05-01T14:40:51.130Z,100545.85
2023-05-01T14:43:55.148Z,100550.58
2023-05-01T14:46:59.399Z,100549.27
2023-05-01T14:50:03.614Z,100548.45
2023-05-01T14:53:07.682Z,100539.38
2023-05-01T14:56:12.596Z,100533.98
2023-05-01T14:59:17.150Z,100533.41
2023-05-01T15:02:21.218Z,100528.07
2023-05-01T15:05:26.295Z,100524.84
2023-05-01T15:08:30.537Z,100526.99
2023-05-01T15:11:34.467Z,100527.91
2023-05-01T15:14:38.582Z,100532.21
2023-05-01T15:17:42.568Z,100529.15
2023-05-01T15:20:46.606Z,100520.21
2023-05-01T15:23:50.722Z,100518.87
2023-05-01T15:26:54.748Z,100505.46
2023-05-01T15:29:59.079Z,100502.09
2023-05-01T15:33:04.170Z,100502.05
2023-05-01T15:36:08.163Z,100498.89
2023-05-01T15:39:13.255Z,100490.54
2023-05-01T15:42:17.217Z,100490.08
2023-05-01T15:45:21.353Z,100481.74
2023-05-01T15:48:26.168Z,100472.95
2023-05-01T15:51:33.018Z,100477.98
2023-05-01T15:54:37.659Z,100477.89
2023-05-01T15:57:46.282Z,100486.73
2023-05-01T16:00:50.681Z,100487.52
2023-05-01T16:03:54.957Z,100481.21
2023-05-01T16:06:59.033Z,100476.84
2023-05-01T16:10:03.876Z,100470.55
2023-05-01T16:13:08.191Z,100468.23
2023-05-01T16:16:14.655Z,100467.26
2023-05-01T16:19:19.184Z,100471.39
2023-05-01T16:22:23.200Z,100476.29
2023-05-01T16:25:27.214Z,100477.41
2023-05-01T16:28:31.434Z,100475.63
2023-05-01T16:31:41.051Z,100471.70
2023-05-01T16:34:45.099Z,100467.15
2023-05-01T16:37:49.014Z,100463.00
2023-05-01T16:40:53.028Z,100461.40
2023-05-01T16:44:00.218Z,100457.31
2023-05-01T16:47:05.259Z,100458.74
2023-05-01T16:50:11.006Z,100455.55
2023-05-01T16:53:15.342Z,100457.16
2023-05-01T16:56:19.353Z,100454.12
2023-05-01T16:59:23.456Z,100455.94
2023-05-01T17:02:27.522Z,100457.69
2023-05-01T17:05:31.496Z,100456.38
2023-05-01T17:08:35.605Z,100453.61
2023-05-01T17:11:39.664Z,100456.05
2023-05-01T17:14:43.580Z,100454.57
2023-05-01T17:17:47.603Z,100459.91
2023-05-01T17:20:52.304Z,100457.98
2023-05-01T17:23:56.212Z,100452.42
2023-05-01T17:27:00.231Z,100452.22
2023-05-01T17:30:05.281Z,100452.11
2023-05-01T17:33:09.311Z,100451.17
2023-05-01T17:36:13.275Z,100450.05
2023-05-01T17:39:17.712Z,100447.28
2023-05-01T17:42:21.742Z,100452.95
2023-05-01T17:45:25.722Z,100454.15
2023-05-01T17:48:29.772Z,100456.63
2023-05-01T17:51:34.097Z,100457.45
2023-05-01T17:54:38.564Z,100453.30
2023-05-01T17:57:42.463Z,100459.83
2023-05-01T18:00:48.104Z,100460.45
2023-05-01T18:03:52.258Z,100461.10
2023-05-01T18:06:56.559Z,100461.75
2023-05-01T18:10:01.148Z,100459.18
2023-05-01T18:13:05.456Z,100460.93
2023-05-01T18:16:11.189Z,100459.70
2023-05-01T18:19:15.251Z,100459.56
2023-05-01T18:22:19.232Z,100460.71
2023-05-01T18:25:23.385Z,100467.20
2023-05-01T18:28:27.799Z,100465.73
2023-05-01T18:31:34.077Z,100464.95
2023-05-01T18:34:38.218Z,100460.19
2023-05-01T18:37:42.925Z,100463.10
2023-05-01T18:40:47.793Z,100458.06
2023-05-01T18:43:54.954Z,100461.73
2023-05-01T18:47:00.408Z,100461.34
2023-05-01T18:50:05.836Z,100462.50
2023-05-01T18:53:09.727Z,100462.23
2023-05-01T18:56:13.625Z,100460.90
2023-05-01T18:59:17.706Z,100462.60
2023-05-01T19:02:21.817Z,100462.30
2023-05-01T19:05:26.021Z,100461.09
2023-05-01T19:08:31.655Z,100457.48
2023-05-01T19:11:35.713Z,100454.39
2023-05-01T19:14:39.837Z,100451.23
2023-05-01T19:17:43.908Z,100444.38
2023-05-01T19:20:47.927Z,100442.02
2023-05-01T19:23:51.969Z,100436.98
2023-05-01T19:26:55.894Z,100434.66
2023-05-01T19:30:01.179Z,100434.55
2023-05-01T19:33:06.088Z,100431.36
2023-05-01T19:36:10.184Z,100428.22
2023-05-01T19:39:14.393Z,100430.13
2023-05-01T19:42:18.384Z,100425.84
2023-05-01T19:45:22.305Z,100426.63
2023-05-01T19:48:26.353Z,100422.06
2023-05-01T19:51:31.726Z,100417.91
2023-05-01T19:54:35.875Z,100419.27
2023-05-01T19:57:39.851Z,100416.52
2023-05-01T20:00:43.851Z,100411.42
2023-05-01T20:03:47.869Z,100413.84
2023-05-01T20:06:52.144Z,100414.60
2023-05-01T20:09:56.853Z,100416.38
2023-05-01T20:13:01.654Z,100412.32
2023-05-01T20:16:06.056Z,100412.92
2023-05-01T20:19:10.701Z,100413.27
2023-05-01T20:22:14.727Z,100412.15
2023-05-01T20:25:18.673Z,100419.75
2023-05-01T20:28:22.661Z,100416.77
2023-05-01T20:31:26.733Z,100419.05
2023-05-01T20:34:30.790Z,100411.07
2023-05-01T20:37:34.805Z,100413.11
2023-05-01T20:40:42.714Z,100413.84
2023-05-01T20:43:46.732Z,100413.34
2023-05-01T20:46:51.000Z,100407.96
2023-05-01T20:49:56.831Z,100407.81
2023-05-01T20:53:01.151Z,100412.36
2023-05-01T20:56:06.210Z,100411.98
2023-05-01T20:59:10.185Z,100408.58
2023-05-01T21:02:16.232Z,100412.77
2023-05-01T21:05:20.253Z,100411.30
2023-05-01T21:08:25.271Z,100419.46
2023-05-01T21:11:29.193Z,100417.89
2023-05-01T21:14:33.239Z,100417.60
2023-05-01T21:17:39.434Z,100419.71
2023-05-01T21:20:46.212Z,100423.42
2023-05-01T21:23:51.076Z,100420.55
2023-05-01T21:26:55.231Z,100419.12
2023-05-01T21:30:01.319Z,100418.60
2023-05-01T21:33:11.842Z,100421.48
2023-05-01T21:36:18.386Z,100425.27
2023-05-01T21:39:24.753Z,100421.89
2023-05-01T21:42:30.987Z,100422.11
2023-05-01T21:45:40.234Z,100421.98
2023-05-01T21:48:49.523Z,100419.88
2023-05-01T21:51:58.151Z,100424.17
2023-05-01T21:55:04.006Z,100420.73
2023-05-01T21:58:07.916Z,100419.22
2023-05-01T22:01:15.373Z,100417.44
2023-05-01T22:04:19.354Z,100412.78
2023-05-01T22:07:24.918Z,100409.80
2023-05-01T22:10:28.937Z,100411.14
2023-05-01T22:13:33.859Z,100406.54
2023-05-01T22:16:37.894Z,100401.60
2023-05-01T22:19:42.223Z,100402.13
2023-05-01T22:22:46.228Z,100400.64
2023-05-01T22:25:50.557Z,100404.95
2023-05-01T22:28:54.733Z,100404.92
2023-05-01T22:31:58.725Z,100401.02
2023-05-01T22:35:03.521Z,100397.84
2023-05-01T22:38:08.464Z,100399.18
2023-05-01T22:41:12.800Z,100398.29
2023-05-01T22:44:16.710Z,100393.98
2023-05-01T22:47:20.917Z,100392.71
2023-05-01T22:50:24.891Z,100392.25
2023-05-01T22:53:30.801Z,100386.73
2023-05-01T22:56:34.792Z,100389.92
2023-05-01T22:59:40.508Z,100390.58
2023-05-01T23:02:44.701Z,100392.81
2023-05-01T23:05:49.009Z,100391.48
2023-05-01T23:08:53.924Z,100383.85
2023-05-01T23:11:57.878Z,100385.41
2023-05-01T23:15:01.984Z,100384.58
2023-05-01T23:18:06.790Z,100387.45
2023-05-01T23:21:12.626Z,100384.55
2023-05-01T23:24:19.041Z,100381.02
2023-05-01T23:27:23.013Z,100377.16
2023-05-01T23:30:26.961Z,100378.68
2023-05-01T23:33:37.427Z,100373.36
2023-05-01T23:36:47.115Z,100372.75
2023-05-01T23:39:53.643Z,100369.56
2023-05-01T23:42:57.813Z,100373.13
2023-05-01T23:46:03.632Z,100369.48
2023-05-01T23:49:07.755Z,100371.40
2023-05-01T23:52:12.689Z,100367.09
2023-05-01T23:55:16.771Z,100364.46
2023-05-01T23:58:20.708Z,100360.48
